createdAt,value
2018-02-20T00:01:10.789Z,0.40
2018-02-20T00:03:14.207Z,0.40
2018-02-20T00:05:17.594Z,0.40
2018-02-20T00:07:21.010Z,0.40
2018-02-20T00:09:24.374Z,0.40
2018-02-20T00:11:27.748Z,0.40
2018-02-20T00:13:31.115Z,0.40
2018-02-20T00:15:34.473Z,0.40
2018-02-20T00:17:38.614Z,0.40
2018-02-20T00:19:42.030Z,0.40
2018-02-20T00:21:45.466Z,0.40
2018-02-20T00:23:48.822Z,0.40
2018-02-20T00:25:52.221Z,0.40
2018-02-20T00:27:55.634Z,0.40
2018-02-20T00:29:58.971Z,0.40
2018-02-20T00:32:02.313Z,0.30
2018-02-20T00:34:05.710Z,0.40
2018-02-20T00:36:09.080Z,0.30
2018-02-20T00:38:12.459Z,0.40
2018-02-20T00:40:15.828Z,0.40
2018-02-20T00:42:19.173Z,0.40
2018-02-20T00:44:23.334Z,0.40
2018-02-20T00:46:26.666Z,0.30
2018-02-20T00:48:30.072Z,0.40
2018-02-20T00:50:33.419Z,0.30
2018-02-20T00:52:37.610Z,0.30
2018-02-20T00:54:40.982Z,0.20
2018-02-20T00:56:45.094Z,0.20
2018-02-20T00:58:49.207Z,0.10
2018-02-20T01:00:52.652Z,0.10
2018-02-20T01:02:56.034Z,0.10
2018-02-20T01:04:59.361Z,0.10
2018-02-20T01:07:03.483Z,0.10
2018-02-20T01:09:06.866Z,0.10
2018-02-20T01:11:10.270Z,0.20
2018-02-20T01:13:13.642Z,0.20
2018-02-20T01:15:17.002Z,0.10
2018-02-20T01:17:20.388Z,0.10
2018-02-20T01:19:23.749Z,0.10
2018-02-20T01:21:27.115Z,0.10
2018-02-20T01:23:30.480Z,0.10
2018-02-20T01:25:33.823Z,0.10
2018-02-20T01:27:37.255Z,0.10
2018-02-20T01:29:40.694Z,0.10
2018-02-20T01:31:44.826Z,0.10
2018-02-20T01:33:48.167Z,0.10
2018-02-20T01:35:51.500Z,0.10
2018-02-20T01:37:54.880Z,0.10
2018-02-20T01:39:58.251Z,0.10
2018-02-20T01:42:01.587Z,0.10
2018-02-20T01:44:04.937Z,0.20
2018-02-20T01:46:09.083Z,0.20
2018-02-20T01:48:12.478Z,0.20
2018-02-20T01:50:15.870Z,0.20
2018-02-20T01:52:19.237Z,0.20
2018-02-20T01:54:22.651Z,0.20
2018-02-20T01:56:26.034Z,0.20
2018-02-20T01:58:30.156Z,0.20
2018-02-20T02:00:33.558Z,0.20
2018-02-20T02:02:36.956Z,0.30
2018-02-20T02:04:40.349Z,0.20
2018-02-20T02:06:44.500Z,0.20
2018-02-20T02:08:47.845Z,0.20
2018-02-20T02:10:51.241Z,0.20
2018-02-20T02:12:54.608Z,0.20
2018-02-20T02:14:58.744Z,0.20
2018-02-20T02:17:02.115Z,0.20
2018-02-20T02:19:05.507Z,0.20
2018-02-20T02:21:08.880Z,0.20
2018-02-20T02:23:12.219Z,0.20
2018-02-20T02:25:16.339Z,0.00
2018-02-20T02:27:19.691Z,-0.10
2018-02-20T02:29:23.089Z,-0.10
2018-02-20T02:31:26.433Z,-0.10
2018-02-20T02:33:30.599Z,0.00
2018-02-20T02:35:33.953Z,-0.10
2018-02-20T02:37:38.098Z,-0.10
2018-02-20T02:39:41.485Z,-0.20
2018-02-20T02:41:44.855Z,-0.20
2018-02-20T02:43:48.383Z,-0.30
2018-02-20T02:45:51.787Z,-0.30
2018-02-20T02:47:55.201Z,-0.40
2018-02-20T02:49:58.568Z,-0.40
2018-02-20T02:52:01.952Z,-0.40
2018-02-20T02:54:05.330Z,-0.40
2018-02-20T02:56:08.769Z,-0.40
2018-02-20T02:58:12.157Z,-0.40
2018-02-20T03:00:15.492Z,-0.30
2018-02-20T03:02:19.607Z,-0.30
2018-02-20T03:04:23.001Z,-0.30
2018-02-20T03:06:26.390Z,-0.20
2018-02-20T03:08:29.811Z,-0.20
2018-02-20T03:10:33.179Z,-0.20
2018-02-20T03:12:36.541Z,-0.20
2018-02-20T03:14:40.710Z,-0.20
2018-02-20T03:16:44.070Z,-0.20
2018-02-20T03:18:47.481Z,-0.20
2018-02-20T03:20:50.875Z,-0.10
2018-02-20T03:22:54.207Z,-0.10
2018-02-20T03:24:57.563Z,-0.10
2018-02-20T03:27:00.906Z,-0.10
2018-02-20T03:29:05.045Z,-0.10
2018-02-20T03:31:09.226Z,-0.10
2018-02-20T03:33:12.588Z,-0.10
2018-02-20T03:35:15.935Z,-0.10
2018-02-20T03:37:20.034Z,-0.10
2018-02-20T03:39:23.399Z,-0.10
2018-02-20T03:41:26.807Z,-0.10
2018-02-20T03:43:31.036Z,-0.10
2018-02-20T03:45:34.450Z,-0.10
2018-02-20T03:47:37.840Z,-0.10
2018-02-20T03:49:41.233Z,-0.20
2018-02-20T03:51:44.625Z,-0.20
2018-02-20T03:53:48.024Z,-0.20
2018-02-20T03:55:51.382Z,-0.20
2018-02-20T03:57:54.810Z,-0.20
2018-02-20T03:59:58.211Z,-0.30
2018-02-20T04:02:01.592Z,-0.30
2018-02-20T04:04:05.039Z,-0.30
2018-02-20T04:06:09.202Z,-0.40
2018-02-20T04:08:12.624Z,-0.40
2018-02-20T04:10:16.023Z,-0.40
2018-02-20T04:12:19.397Z,-0.40
2018-02-20T04:14:22.773Z,-0.40
2018-02-20T04:16:26.123Z,-0.40
2018-02-20T04:18:30.229Z,-0.50
2018-02-20T04:20:34.352Z,-0.40
2018-02-20T04:22:37.697Z,-0.50
2018-02-20T04:24:41.081Z,-0.50
2018-02-20T04:26:44.557Z,-0.50
2018-02-20T04:28:47.924Z,-0.40
2018-02-20T04:30:51.310Z,-0.40
2018-02-20T04:32:54.684Z,-0.40
2018-02-20T04:34:58.074Z,-0.40
2018-02-20T04:37:01.401Z,-0.40
2018-02-20T04:39:04.824Z,-0.40
2018-02-20T04:41:08.190Z,-0.40
2018-02-20T04:43:11.622Z,-0.40
2018-02-20T04:45:15.831Z,-0.50
2018-02-20T04:47:19.158Z,-0.50
2018-02-20T04:49:23.285Z,-0.50
2018-02-20T04:51:26.683Z,-0.50
2018-02-20T04:53:30.853Z,-0.60
2018-02-20T04:55:34.189Z,-0.60
2018-02-20T04:57:37.524Z,-0.60
2018-02-20T04:59:40.859Z,-0.60
2018-02-20T05:01:44.957Z,-0.50
2018-02-20T05:03:49.089Z,-0.50
2018-02-20T05:05:52.449Z,-0.50
2018-02-20T05:07:56.595Z,-0.50
2018-02-20T05:09:59.943Z,-0.50
2018-02-20T05:12:04.076Z,-0.50
2018-02-20T05:14:07.510Z,-0.50
2018-02-20T05:16:10.884Z,-0.40
2018-02-20T05:18:14.251Z,-0.40
2018-02-20T05:20:18.435Z,-0.40
2018-02-20T05:22:21.778Z,-0.50
2018-02-20T05:24:25.152Z,-0.50
2018-02-20T05:26:28.504Z,-0.50
2018-02-20T05:28:31.869Z,-0.50
2018-02-20T05:30:35.228Z,-0.50
2018-02-20T05:32:41.741Z,-0.50
2018-02-20T05:34:46.923Z,-0.50
2018-02-20T05:36:50.297Z,-0.50
2018-02-20T05:38:53.680Z,-0.50
2018-02-20T05:40:57.034Z,-0.50
2018-02-20T05:43:00.401Z,-0.50
2018-02-20T05:45:03.805Z,-0.50
2018-02-20T05:47:07.182Z,-0.50
2018-02-20T05:49:10.616Z,-0.50
2018-02-20T05:51:14.042Z,-0.50
2018-02-20T05:53:17.475Z,-0.50
2018-02-20T05:55:20.915Z,-0.50
2018-02-20T05:57:24.428Z,-0.50
2018-02-20T05:59:28.740Z,-0.50
2018-02-20T06:01:32.906Z,-0.50
2018-02-20T06:03:37.046Z,-0.50
2018-02-20T06:05:41.252Z,-0.50
2018-02-20T06:07:44.739Z,-0.50
2018-02-20T06:09:49.024Z,-0.50
2018-02-20T06:11:52.468Z,-0.50
2018-02-20T06:13:56.721Z,-0.50
2018-02-20T06:16:00.222Z,-0.50
2018-02-20T06:18:03.672Z,-0.50
2018-02-20T06:20:07.214Z,-0.50
2018-02-20T06:22:11.283Z,-0.40
2018-02-20T06:24:15.490Z,-0.40
2018-02-20T06:26:19.100Z,-0.50
2018-02-20T06:28:23.352Z,-0.50
2018-02-20T06:30:26.955Z,-0.50
2018-02-20T06:32:31.518Z,-0.50
2018-02-20T06:34:35.046Z,-0.50
2018-02-20T06:36:39.880Z,-0.50
2018-02-20T06:38:43.462Z,-0.50
2018-02-20T06:40:47.004Z,-0.60
2018-02-20T06:42:50.473Z,-0.60
2018-02-20T06:44:54.036Z,-0.60
2018-02-20T06:46:57.602Z,-0.60
2018-02-20T06:49:01.216Z,-0.50
2018-02-20T06:51:04.790Z,-0.60
2018-02-20T06:53:08.273Z,-0.50
2018-02-20T06:55:11.748Z,-0.50
2018-02-20T06:57:15.989Z,-0.50
2018-02-20T06:59:20.024Z,-0.50
2018-02-20T07:01:23.687Z,-0.50
2018-02-20T07:03:27.286Z,-0.40
2018-02-20T07:05:30.857Z,-0.40
2018-02-20T07:07:34.418Z,-0.40
2018-02-20T07:09:37.921Z,-0.40
2018-02-20T07:11:41.419Z,-0.30
2018-02-20T07:13:45.107Z,-0.30
2018-02-20T07:15:48.648Z,-0.30
2018-02-20T07:17:52.196Z,-0.30
2018-02-20T07:19:55.700Z,-0.30
2018-02-20T07:21:59.215Z,-0.30
2018-02-20T07:24:02.745Z,-0.20
2018-02-20T07:26:07.080Z,-0.20
2018-02-20T07:28:10.544Z,-0.20
2018-02-20T07:30:13.984Z,-0.20
2018-02-20T07:32:17.561Z,-0.20
2018-02-20T07:34:21.252Z,-0.10
2018-02-20T07:36:24.763Z,-0.10
2018-02-20T07:38:29.187Z,-0.10
2018-02-20T07:40:32.665Z,-0.10
2018-02-20T07:42:36.993Z,-0.10
2018-02-20T07:44:40.546Z,-0.10
2018-02-20T07:46:44.059Z,0.00
2018-02-20T07:48:48.363Z,0.00
2018-02-20T07:50:51.935Z,0.00
2018-02-20T07:52:56.296Z,0.00
2018-02-20T07:55:00.562Z,0.10
2018-02-20T07:57:04.025Z,0.00
2018-02-20T07:59:07.612Z,0.10
2018-02-20T08:01:11.172Z,0.20
2018-02-20T08:03:14.685Z,0.30
2018-02-20T08:05:18.291Z,0.30
2018-02-20T08:07:22.581Z,0.50
2018-02-20T08:09:26.149Z,0.40
2018-02-20T08:11:29.676Z,0.50
2018-02-20T08:13:33.978Z,0.50
2018-02-20T08:15:38.261Z,0.60
2018-02-20T08:17:41.711Z,0.50
2018-02-20T08:19:46.056Z,0.80
2018-02-20T08:21:49.676Z,0.70
2018-02-20T08:23:53.246Z,0.80
2018-02-20T08:25:56.742Z,0.90
2018-02-20T08:28:01.068Z,1.10
2018-02-20T08:30:04.587Z,1.10
2018-02-20T08:32:08.980Z,1.30
2018-02-20T08:34:12.530Z,1.20
2018-02-20T08:36:16.058Z,1.40
2018-02-20T08:38:19.640Z,1.40
2018-02-20T08:40:23.225Z,1.50
2018-02-20T08:42:26.798Z,1.70
2018-02-20T08:44:30.354Z,1.90
2018-02-20T08:46:33.883Z,2.10
2018-02-20T08:48:37.355Z,2.40
2018-02-20T08:50:41.000Z,2.50
2018-02-20T08:52:45.234Z,2.90
2018-02-20T08:54:48.813Z,2.90
2018-02-20T08:56:53.147Z,3.30
2018-02-20T08:58:56.672Z,3.30
2018-02-20T09:01:00.203Z,3.40
2018-02-20T09:03:04.469Z,3.30
2018-02-20T09:05:07.973Z,3.30
2018-02-20T09:07:11.601Z,3.30
2018-02-20T09:09:15.105Z,3.20
2018-02-20T09:11:18.716Z,3.20
2018-02-20T09:13:22.307Z,3.20
2018-02-20T09:15:25.763Z,3.20
2018-02-20T09:17:29.255Z,3.20
2018-02-20T09:19:32.958Z,3.10
2018-02-20T09:21:36.502Z,2.90
2018-02-20T09:23:40.788Z,2.60
2018-02-20T09:25:44.307Z,2.60
2018-02-20T09:27:47.879Z,2.40
2018-02-20T09:29:52.170Z,2.10
2018-02-20T09:31:55.718Z,2.10
2018-02-20T09:34:00.166Z,2.30
2018-02-20T09:36:04.119Z,2.30
2018-02-20T09:38:08.252Z,2.50
2018-02-20T09:40:12.201Z,2.70
2018-02-20T09:42:15.959Z,2.80
2018-02-20T09:44:19.656Z,2.90
2018-02-20T09:46:24.122Z,3.00
2018-02-20T09:48:28.460Z,3.10
2018-02-20T09:50:32.040Z,3.10
2018-02-20T09:52:35.683Z,3.10
2018-02-20T09:54:39.256Z,3.10
2018-02-20T09:56:42.849Z,3.20
2018-02-20T09:58:46.367Z,3.20
2018-02-20T10:00:50.599Z,3.40
2018-02-20T10:02:54.077Z,3.40
2018-02-20T10:04:57.595Z,3.40
2018-02-20T10:07:01.460Z,3.50
2018-02-20T10:09:05.774Z,3.60
2018-02-20T10:11:09.506Z,3.60
2018-02-20T10:13:13.100Z,3.60
2018-02-20T10:15:16.692Z,3.60
2018-02-20T10:17:20.207Z,3.60
2018-02-20T10:19:23.736Z,3.50
2018-02-20T10:21:27.320Z,3.50
2018-02-20T10:23:30.841Z,3.50
2018-02-20T10:25:34.383Z,3.50
2018-02-20T10:27:37.936Z,3.60
2018-02-20T10:29:41.446Z,3.50
2018-02-20T10:31:45.185Z,3.50
2018-02-20T10:33:49.305Z,3.50
2018-02-20T10:35:52.825Z,3.60
2018-02-20T10:37:56.304Z,3.50
2018-02-20T10:40:00.214Z,3.40
2018-02-20T10:42:04.967Z,3.40
2018-02-20T10:44:08.364Z,3.50
2018-02-20T10:46:11.783Z,3.50
2018-02-20T10:48:16.076Z,3.70
2018-02-20T10:50:19.561Z,3.70
2018-02-20T10:52:22.979Z,3.60
2018-02-20T10:54:27.194Z,3.60
2018-02-20T10:56:30.682Z,3.60
2018-02-20T10:58:34.064Z,3.60
2018-02-20T11:00:38.321Z,3.70
2018-02-20T11:02:41.794Z,3.60
2018-02-20T11:04:45.312Z,3.80
2018-02-20T11:06:48.770Z,3.90
2018-02-20T11:08:53.087Z,4.30
2018-02-20T11:10:56.607Z,4.30
2018-02-20T11:13:00.089Z,4.50
2018-02-20T11:15:04.350Z,4.90
2018-02-20T11:17:08.929Z,5.10
2018-02-20T11:19:12.560Z,5.10
2018-02-20T11:21:16.092Z,5.40
2018-02-20T11:23:19.599Z,5.70
2018-02-20T11:25:23.094Z,6.00
2018-02-20T11:27:27.339Z,6.70
2018-02-20T11:29:30.865Z,6.70
2018-02-20T11:31:34.326Z,6.90
2018-02-20T11:33:37.846Z,6.90
2018-02-20T11:35:41.531Z,6.90
2018-02-20T11:37:45.004Z,6.80
2018-02-20T11:39:48.392Z,6.60
2018-02-20T11:41:51.861Z,6.30
2018-02-20T11:43:56.132Z,5.90
2018-02-20T11:45:59.612Z,5.90
2018-02-20T11:48:03.132Z,5.90
2018-02-20T11:50:06.573Z,5.80
2018-02-20T11:52:10.116Z,5.80
2018-02-20T11:54:13.599Z,5.60
2018-02-20T11:56:17.048Z,5.60
2018-02-20T11:58:20.505Z,5.50
2018-02-20T12:00:23.957Z,5.40
2018-02-20T12:02:27.457Z,5.30
2018-02-20T12:04:31.366Z,5.20
2018-02-20T12:06:35.676Z,5.20
2018-02-20T12:08:39.103Z,5.20
2018-02-20T12:10:42.683Z,5.20
2018-02-20T12:12:46.191Z,5.20
2018-02-20T12:14:49.622Z,5.30
2018-02-20T12:16:53.062Z,5.40
2018-02-20T12:18:56.512Z,5.30
2018-02-20T12:21:00.017Z,5.30
2018-02-20T12:23:03.490Z,5.40
2018-02-20T12:25:06.935Z,5.60
2018-02-20T12:27:10.532Z,5.80
2018-02-20T12:29:14.138Z,6.00
2018-02-20T12:31:17.631Z,6.40
2018-02-20T12:33:21.044Z,6.80
2018-02-20T12:35:24.557Z,7.30
2018-02-20T12:37:28.037Z,7.70
2018-02-20T12:39:31.579Z,8.00
2018-02-20T12:41:35.821Z,8.00
2018-02-20T12:43:39.270Z,8.00
2018-02-20T12:45:42.812Z,7.60
2018-02-20T12:47:46.325Z,7.20
2018-02-20T12:49:49.845Z,7.10
2018-02-20T12:51:54.137Z,7.00
2018-02-20T12:53:57.624Z,7.00
2018-02-20T12:56:01.231Z,7.00
2018-02-20T12:58:04.753Z,6.90
2018-02-20T13:00:08.378Z,6.80
2018-02-20T13:02:11.951Z,6.80
2018-02-20T13:04:15.363Z,6.80
2018-02-20T13:06:18.826Z,6.70
2018-02-20T13:08:22.340Z,6.70
2018-02-20T13:10:25.897Z,6.60
2018-02-20T13:12:30.211Z,6.60
2018-02-20T13:14:33.687Z,6.60
2018-02-20T13:16:37.167Z,6.80
2018-02-20T13:18:40.637Z,7.10
2018-02-20T13:20:44.125Z,7.60
2018-02-20T13:22:48.356Z,8.30
2018-02-20T13:24:51.803Z,8.30
2018-02-20T13:26:55.225Z,8.40
2018-02-20T13:28:59.549Z,8.30
2018-02-20T13:31:03.048Z,8.20
2018-02-20T13:33:07.284Z,8.00
2018-02-20T13:35:10.838Z,8.00
2018-02-20T13:37:14.358Z,8.10
2018-02-20T13:39:18.564Z,8.50
2018-02-20T13:41:22.049Z,8.50
2018-02-20T13:43:25.463Z,8.80
2018-02-20T13:45:28.975Z,9.00
2018-02-20T13:47:32.382Z,9.00
2018-02-20T13:49:37.509Z,8.70
2018-02-20T13:51:40.946Z,8.60
2018-02-20T13:53:45.126Z,7.70
2018-02-20T13:55:48.647Z,7.70
2018-02-20T13:57:52.187Z,7.90
2018-02-20T13:59:55.587Z,7.80
2018-02-20T14:01:59.159Z,7.60
2018-02-20T14:04:02.605Z,7.50
2018-02-20T14:06:06.093Z,7.70
2018-02-20T14:08:10.392Z,8.30
2018-02-20T14:10:13.862Z,8.30
2018-02-20T14:12:17.407Z,8.60
2018-02-20T14:14:21.671Z,8.00
2018-02-20T14:16:25.173Z,8.00
2018-02-20T14:18:28.640Z,7.80
2018-02-20T14:20:32.824Z,7.50
2018-02-20T14:22:36.361Z,7.50
2018-02-20T14:24:40.615Z,6.40
2018-02-20T14:26:44.050Z,6.40
2018-02-20T14:28:47.530Z,6.30
2018-02-20T14:30:51.043Z,6.30
2018-02-20T14:32:54.599Z,6.50
2018-02-20T14:34:58.765Z,6.40
2018-02-20T14:37:02.255Z,6.50
2018-02-20T14:39:06.523Z,6.50
2018-02-20T14:41:10.042Z,6.40
2018-02-20T14:43:13.536Z,6.60
2018-02-20T14:45:17.056Z,6.40
2018-02-20T14:47:20.568Z,6.60
2018-02-20T14:49:24.083Z,6.70
2018-02-20T14:51:27.733Z,6.90
2018-02-20T14:53:31.966Z,7.60
2018-02-20T14:55:35.446Z,7.60
2018-02-20T14:57:38.842Z,8.00
2018-02-20T14:59:42.290Z,8.30
2018-02-20T15:01:46.556Z,8.20
2018-02-20T15:03:50.021Z,8.00
2018-02-20T15:05:53.558Z,8.00
2018-02-20T15:07:56.981Z,7.90
2018-02-20T15:10:00.303Z,7.70
2018-02-20T15:12:03.639Z,7.70
2018-02-20T15:14:07.014Z,7.70
2018-02-20T15:16:10.379Z,7.80
2018-02-20T15:18:13.761Z,8.00
2018-02-20T15:20:17.109Z,7.70
2018-02-20T15:22:20.457Z,7.50
2018-02-20T15:24:23.778Z,7.30
2018-02-20T15:26:27.892Z,6.80
2018-02-20T15:28:32.048Z,6.60
2018-02-20T15:30:35.402Z,6.60
2018-02-20T15:32:38.776Z,6.40
2018-02-20T15:34:42.897Z,5.90
2018-02-20T15:36:46.240Z,5.90
2018-02-20T15:38:49.576Z,6.00
2018-02-20T15:40:53.284Z,6.00
2018-02-20T15:42:56.702Z,6.00
2018-02-20T15:45:00.079Z,5.90
2018-02-20T15:47:03.406Z,5.90
2018-02-20T15:49:07.592Z,5.70
2018-02-20T15:51:10.945Z,5.70
2018-02-20T15:53:14.355Z,5.60
2018-02-20T15:55:17.732Z,5.50
2018-02-20T15:57:21.114Z,5.50
2018-02-20T15:59:25.332Z,5.40
2018-02-20T16:01:29.448Z,5.20
2018-02-20T16:03:32.871Z,5.20
2018-02-20T16:05:36.227Z,5.00
2018-02-20T16:07:39.620Z,4.80
2018-02-20T16:09:43.040Z,4.60
2018-02-20T16:11:47.243Z,4.40
2018-02-20T16:13:54.143Z,4.40
2018-02-20T16:16:03.162Z,4.30
2018-02-20T16:18:06.537Z,4.20
2018-02-20T16:20:10.741Z,4.20
2018-02-20T16:22:14.142Z,4.20
2018-02-20T16:24:18.312Z,4.30
2018-02-20T16:26:23.394Z,4.20
2018-02-20T16:28:27.078Z,4.20
2018-02-20T16:30:30.534Z,4.10
2018-02-20T16:32:33.971Z,4.10
2018-02-20T16:34:37.453Z,4.10
2018-02-20T16:36:40.914Z,4.10
2018-02-20T16:38:45.136Z,4.00
2018-02-20T16:40:49.477Z,3.90
2018-02-20T16:42:53.048Z,3.90
2018-02-20T16:44:56.455Z,3.90
2018-02-20T16:46:59.908Z,3.90
2018-02-20T16:49:04.123Z,3.90
2018-02-20T16:51:07.488Z,3.80
2018-02-20T16:53:11.080Z,3.90
2018-02-20T16:55:14.497Z,3.80
2018-02-20T16:57:17.859Z,3.80
2018-02-20T16:59:22.733Z,3.80
2018-02-20T17:01:26.204Z,3.80
2018-02-20T17:03:30.824Z,3.80
2018-02-20T17:05:36.068Z,3.70
2018-02-20T17:07:40.579Z,3.70
2018-02-20T17:09:44.101Z,3.70
2018-02-20T17:11:49.152Z,3.70
2018-02-20T17:13:52.740Z,3.60
2018-02-20T17:15:57.122Z,3.50
2018-02-20T17:18:00.575Z,3.50
2018-02-20T17:20:04.633Z,3.50
2018-02-20T17:22:08.847Z,3.30
2018-02-20T17:24:13.266Z,3.20
2018-02-20T17:26:16.867Z,3.20
2018-02-20T17:28:20.328Z,3.10
2018-02-20T17:30:23.793Z,3.00
2018-02-20T17:32:27.290Z,2.90
2018-02-20T17:34:30.711Z,3.00
2018-02-20T17:36:35.672Z,3.00
2018-02-20T17:38:39.886Z,3.00
2018-02-20T17:40:46.709Z,3.00
2018-02-20T17:42:50.446Z,3.00
2018-02-20T17:44:53.800Z,3.00
2018-02-20T17:46:57.167Z,3.00
2018-02-20T17:49:05.841Z,3.00
2018-02-20T17:51:09.677Z,3.00
2018-02-20T17:53:14.272Z,3.00
2018-02-20T17:55:17.669Z,3.00
2018-02-20T17:57:21.146Z,2.90
2018-02-20T17:59:24.879Z,2.90
2018-02-20T18:01:29.038Z,3.00
2018-02-20T18:03:32.474Z,2.90
2018-02-20T18:05:36.086Z,3.00
2018-02-20T18:07:40.708Z,2.90
2018-02-20T18:09:44.087Z,2.90
2018-02-20T18:11:48.817Z,2.90
2018-02-20T18:13:52.956Z,2.80
2018-02-20T18:15:57.314Z,2.80
2018-02-20T18:18:01.545Z,2.70
2018-02-20T18:20:04.940Z,2.70
2018-02-20T18:22:10.001Z,2.50
2018-02-20T18:24:13.611Z,2.60
2018-02-20T18:26:18.252Z,2.50
2018-02-20T18:28:21.774Z,2.50
2018-02-20T18:30:25.992Z,2.50
2018-02-20T18:32:29.493Z,2.50
2018-02-20T18:34:33.666Z,2.40
2018-02-20T18:36:37.080Z,2.40
2018-02-20T18:38:41.304Z,2.40
2018-02-20T18:40:45.890Z,2.40
2018-02-20T18:42:50.850Z,2.40
2018-02-20T18:44:54.294Z,2.30
2018-02-20T18:46:58.480Z,2.30
2018-02-20T18:49:01.982Z,2.20
2018-02-20T18:51:05.391Z,2.10
2018-02-20T18:53:08.803Z,2.00
2018-02-20T18:55:12.211Z,1.90
2018-02-20T18:57:15.702Z,1.90
2018-02-20T18:59:19.143Z,1.80
2018-02-20T19:01:22.575Z,1.70
2018-02-20T19:03:25.939Z,1.70
2018-02-20T19:05:29.337Z,1.60
2018-02-20T19:07:33.607Z,1.50
2018-02-20T19:09:37.831Z,1.60
2018-02-20T19:11:41.248Z,1.50
2018-02-20T19:13:44.727Z,1.60
2018-02-20T19:15:48.865Z,1.60
2018-02-20T19:17:52.722Z,1.60
2018-02-20T19:19:58.364Z,1.60
2018-02-20T19:22:08.544Z,1.60
2018-02-20T19:24:21.101Z,1.60
2018-02-20T19:26:28.256Z,1.60
2018-02-20T19:28:34.912Z,1.60
2018-02-20T19:30:47.121Z,1.60
2018-02-20T19:32:54.604Z,1.70
2018-02-20T19:37:19.837Z,1.60
2018-02-20T19:39:27.282Z,1.60
2018-02-20T19:41:35.937Z,1.60
2018-02-20T19:43:44.276Z,1.50
2018-02-20T19:45:51.404Z,1.50
2018-02-20T19:47:56.468Z,1.50
2018-02-20T19:50:01.282Z,1.40
2018-02-20T19:52:09.181Z,1.40
2018-02-20T19:54:14.800Z,1.40
2018-02-20T19:56:21.777Z,1.40
2018-02-20T19:58:28.581Z,1.30
2018-02-20T20:00:39.238Z,1.30
2018-02-20T20:02:44.499Z,1.20
2018-02-20T20:04:51.077Z,1.20
2018-02-20T20:06:55.643Z,1.20
2018-02-20T20:08:59.016Z,1.20
2018-02-20T20:11:02.452Z,1.20
2018-02-20T20:13:05.927Z,1.20
2018-02-20T20:15:09.289Z,1.20
2018-02-20T20:17:12.781Z,1.20
2018-02-20T20:19:17.022Z,1.00
2018-02-20T20:21:20.467Z,1.00
2018-02-20T20:23:25.810Z,1.00
2018-02-20T20:25:31.844Z,1.00
2018-02-20T20:27:35.227Z,1.00
2018-02-20T20:29:39.780Z,1.00
2018-02-20T20:31:43.133Z,1.00
2018-02-20T20:33:46.521Z,1.00
2018-02-20T20:35:49.965Z,0.90
2018-02-20T20:37:53.330Z,0.90
2018-02-20T20:39:56.710Z,0.90
2018-02-20T20:42:00.067Z,0.80
2018-02-20T20:44:03.410Z,0.80
2018-02-20T20:46:06.754Z,0.80
2018-02-20T20:48:10.080Z,0.70
2018-02-20T20:50:13.457Z,0.70
2018-02-20T20:52:16.835Z,0.70
2018-02-20T20:54:20.197Z,0.70
2018-02-20T20:56:24.340Z,0.60
2018-02-20T20:58:27.674Z,0.60
2018-02-20T21:00:31.016Z,0.60
2018-02-20T21:02:34.356Z,0.60
2018-02-20T21:04:37.694Z,0.50
2018-02-20T21:06:41.081Z,0.50
2018-02-20T21:08:44.479Z,0.50
2018-02-20T21:10:47.820Z,0.40
2018-02-20T21:12:51.957Z,0.40
2018-02-20T21:14:56.046Z,0.40
2018-02-20T21:16:59.411Z,0.40
2018-02-20T21:19:03.548Z,0.40
2018-02-20T21:21:06.885Z,0.40
2018-02-20T21:23:10.244Z,0.30
2018-02-20T21:25:14.431Z,0.20
2018-02-20T21:27:17.789Z,0.10
2018-02-20T21:29:21.125Z,0.20
2018-02-20T21:31:24.498Z,0.20
2018-02-20T21:33:28.724Z,0.30
2018-02-20T21:35:32.058Z,0.20
2018-02-20T21:37:35.399Z,0.30
2018-02-20T21:39:38.792Z,0.30
2018-02-20T21:41:42.189Z,0.30
2018-02-20T21:43:45.551Z,0.30
2018-02-20T21:45:48.889Z,0.30
2018-02-20T21:47:53.033Z,0.30
2018-02-20T21:49:56.394Z,0.30
2018-02-20T21:51:59.733Z,0.30
2018-02-20T21:54:03.057Z,0.40
2018-02-20T21:56:06.525Z,0.30
2018-02-20T21:58:09.861Z,0.40
2018-02-20T22:00:13.219Z,0.40
2018-02-20T22:02:16.597Z,0.40
2018-02-20T22:04:19.939Z,0.50
2018-02-20T22:06:24.102Z,0.50
2018-02-20T22:08:27.445Z,0.50
2018-02-20T22:10:32.166Z,0.60
2018-02-20T22:12:35.553Z,0.60
2018-02-20T22:14:39.092Z,0.60
2018-02-20T22:16:42.441Z,0.60
2018-02-20T22:18:45.852Z,0.60
2018-02-20T22:20:49.200Z,0.70
2018-02-20T22:22:52.534Z,0.70
2018-02-20T22:24:55.872Z,0.70
2018-02-20T22:26:59.196Z,0.70
2018-02-20T22:29:03.351Z,0.60
2018-02-20T22:31:06.720Z,0.60
2018-02-20T22:33:10.766Z,0.60
2018-02-20T22:35:14.141Z,0.60
2018-02-20T22:37:17.498Z,0.60
2018-02-20T22:39:20.890Z,0.70
2018-02-20T22:41:24.325Z,0.70
2018-02-20T22:43:27.743Z,0.70
2018-02-20T22:45:31.120Z,0.70
2018-02-20T22:47:34.492Z,0.70
2018-02-20T22:49:37.870Z,0.60
2018-02-20T22:51:41.249Z,0.60
2018-02-20T22:53:44.642Z,0.70
2018-02-20T22:55:48.067Z,0.70
2018-02-20T22:57:51.431Z,0.70
2018-02-20T22:59:54.844Z,0.70
2018-02-20T23:01:58.202Z,0.70
2018-02-20T23:04:01.625Z,0.70
2018-02-20T23:06:04.971Z,0.80
2018-02-20T23:08:08.596Z,0.80
2018-02-20T23:10:11.990Z,0.80
2018-02-20T23:12:15.490Z,0.90
2018-02-20T23:14:19.058Z,0.90
2018-02-20T23:16:23.168Z,0.90
2018-02-20T23:18:27.411Z,1.00
2018-02-20T23:20:30.784Z,0.90
2018-02-20T23:22:34.884Z,0.90
2018-02-20T23:24:38.419Z,0.90
2018-02-20T23:26:41.767Z,0.90
2018-02-20T23:28:45.889Z,0.90
2018-02-20T23:30:50.021Z,0.80
2018-02-20T23:32:53.414Z,0.80
2018-02-20T23:34:56.813Z,0.90
2018-02-20T23:37:00.194Z,0.90
2018-02-20T23:39:03.670Z,0.90
2018-02-20T23:41:07.812Z,0.80
2018-02-20T23:43:11.180Z,0.80
2018-02-20T23:45:15.294Z,0.80
2018-02-20T23:47:18.673Z,0.80
2018-02-20T23:49:22.949Z,0.80
2018-02-20T23:51:32.024Z,0.70
2018-02-20T23:53:35.417Z,0.80
2018-02-20T23:55:38.774Z,0.80
2018-02-20T23:57:42.146Z,0.80
2018-02-20T23:59:45.542Z,0.80
